Terminal Aerodrome Forecast
Issued by NWS Billings, MT

Home | Current Version | Previous Version | Text Only | Print | Product List | Glossary On
Versions: 1 2 3 4 5 6 7 8 9 10 11 12 13 14 15 16 17 18 19 20 21 22 23 24 25 26 27
000
FTUS45 KBYZ 031132
TAFSHR
TAF
KSHR 031132Z 0312/0412 VRB05KT P6SM BKN100
     FM031300 VRB05KT P6SM VCFG SCT004
     FM031800 VRB05KT P6SM SCT008
     FM032100 09005KT P6SM BKN035
     FM040300 11010KT P6SM VCTS BKN050CB
     FM040500 15014KT 1SM RA BR OVC001=

USA.gov is the U.S. government's official web portal to all federal, state and local government web resources and services.